sensor_id;sensor_type;location;lat;lon;timestamp;P1;durP1;ratioP1;P2;durP2;ratioP2
4831;SDS011;2430;51.322;7.864;2023-07-13T00:02:05;6.50;;;3.70;;
4831;SDS011;2430;51.322;7.864;2023-07-13T00:04:33;5.90;;;3.63;;
4831;SDS011;2430;51.322;7.864;2023-07-13T00:06:59;8.23;;;3.93;;
4831;SDS011;2430;51.322;7.864;2023-07-13T00:09:26;8.40;;;3.27;;
4831;SDS011;2430;51.322;7.864;2023-07-13T00:11:53;7.10;;;3.40;;
4831;SDS011;2430;51.322;7.864;2023-07-13T00:14:20;6.53;;;2.70;;
4831;SDS011;2430;51.322;7.864;2023-07-13T00:16:46;9.47;;;3.37;;
4831;SDS011;2430;51.322;7.864;2023-07-13T00:19:12;10.27;;;3.17;;
4831;SDS011;2430;51.322;7.864;2023-07-13T00:21:40;4.47;;;2.73;;
4831;SDS011;2430;51.322;7.864;2023-07-13T00:24:06;5.43;;;2.80;;
4831;SDS011;2430;51.322;7.864;2023-07-13T00:26:33;3.90;;;2.57;;
4831;SDS011;2430;51.322;7.864;2023-07-13T00:28:59;9.37;;;3.00;;
4831;SDS011;2430;51.322;7.864;2023-07-13T00:31:25;3.13;;;2.67;;
4831;SDS011;2430;51.322;7.864;2023-07-13T00:33:52;3.67;;;2.70;;
4831;SDS011;2430;51.322;7.864;2023-07-13T00:36:18;6.40;;;2.90;;
4831;SDS011;2430;51.322;7.864;2023-07-13T00:38:46;5.10;;;2.50;;
4831;SDS011;2430;51.322;7.864;2023-07-13T00:41:13;5.37;;;2.10;;
4831;SDS011;2430;51.322;7.864;2023-07-13T00:43:40;6.93;;;2.53;;
4831;SDS011;2430;51.322;7.864;2023-07-13T00:46:20;5.20;;;2.50;;
4831;SDS011;2430;51.322;7.864;2023-07-13T00:48:48;4.50;;;2.60;;
4831;SDS011;2430;51.322;7.864;2023-07-13T00:51:15;7.50;;;3.07;;
4831;SDS011;2430;51.322;7.864;2023-07-13T00:53:42;3.93;;;2.80;;
4831;SDS011;2430;51.322;7.864;2023-07-13T00:56:10;6.30;;;2.30;;
4831;SDS011;2430;51.322;7.864;2023-07-13T00:58:36;4.57;;;2.60;;
4831;SDS011;2430;51.322;7.864;2023-07-13T01:01:03;4.10;;;2.70;;
4831;SDS011;2430;51.322;7.864;2023-07-13T01:03:29;5.83;;;2.73;;
4831;SDS011;2430;51.322;7.864;2023-07-13T01:05:55;7.80;;;2.73;;
4831;SDS011;2430;51.322;7.864;2023-07-13T01:08:22;6.10;;;3.17;;
4831;SDS011;2430;51.322;7.864;2023-07-13T01:10:52;7.53;;;3.00;;
4831;SDS011;2430;51.322;7.864;2023-07-13T01:13:20;5.87;;;2.80;;
4831;SDS011;2430;51.322;7.864;2023-07-13T01:15:47;8.07;;;3.10;;
4831;SDS011;2430;51.322;7.864;2023-07-13T01:18:14;5.13;;;2.90;;
4831;SDS011;2430;51.322;7.864;2023-07-13T01:20:41;5.70;;;3.10;;
4831;SDS011;2430;51.322;7.864;2023-07-13T01:23:09;3.20;;;2.60;;
4831;SDS011;2430;51.322;7.864;2023-07-13T01:25:37;5.40;;;3.00;;
4831;SDS011;2430;51.322;7.864;2023-07-13T01:28:04;2.97;;;2.50;;
4831;SDS011;2430;51.322;7.864;2023-07-13T01:30:31;4.53;;;2.47;;
4831;SDS011;2430;51.322;7.864;2023-07-13T01:32:57;4.47;;;2.67;;
4831;SDS011;2430;51.322;7.864;2023-07-13T01:35:24;5.00;;;2.83;;
4831;SDS011;2430;51.322;7.864;2023-07-13T01:37:52;6.83;;;2.93;;
4831;SDS011;2430;51.322;7.864;2023-07-13T01:40:19;6.60;;;2.50;;
4831;SDS011;2430;51.322;7.864;2023-07-13T01:42:46;6.60;;;2.97;;
4831;SDS011;2430;51.322;7.864;2023-07-13T01:45:12;5.73;;;3.03;;
4831;SDS011;2430;51.322;7.864;2023-07-13T01:47:38;5.33;;;2.77;;
4831;SDS011;2430;51.322;7.864;2023-07-13T01:50:05;4.63;;;2.63;;
4831;SDS011;2430;51.322;7.864;2023-07-13T01:52:31;5.10;;;2.83;;
4831;SDS011;2430;51.322;7.864;2023-07-13T01:54:58;4.23;;;2.87;;
4831;SDS011;2430;51.322;7.864;2023-07-13T01:57:25;5.10;;;2.80;;
4831;SDS011;2430;51.322;7.864;2023-07-13T01:59:52;4.90;;;2.73;;
4831;SDS011;2430;51.322;7.864;2023-07-13T02:02:18;7.97;;;2.53;;
4831;SDS011;2430;51.322;7.864;2023-07-13T02:04:45;2.70;;;2.30;;
4831;SDS011;2430;51.322;7.864;2023-07-13T02:07:11;4.80;;;2.47;;
4831;SDS011;2430;51.322;7.864;2023-07-13T02:09:37;3.60;;;2.60;;
4831;SDS011;2430;51.322;7.864;2023-07-13T02:12:04;5.70;;;2.30;;
4831;SDS011;2430;51.322;7.864;2023-07-13T02:14:33;3.30;;;2.60;;
4831;SDS011;2430;51.322;7.864;2023-07-13T02:16:59;7.17;;;3.30;;
4831;SDS011;2430;51.322;7.864;2023-07-13T02:19:26;5.93;;;3.13;;
4831;SDS011;2430;51.322;7.864;2023-07-13T02:21:52;6.27;;;2.97;;
4831;SDS011;2430;51.322;7.864;2023-07-13T02:24:19;7.77;;;2.50;;
4831;SDS011;2430;51.322;7.864;2023-07-13T02:26:46;7.97;;;3.43;;
4831;SDS011;2430;51.322;7.864;2023-07-13T02:29:13;7.30;;;3.23;;
4831;SDS011;2430;51.322;7.864;2023-07-13T02:31:41;4.93;;;2.60;;
4831;SDS011;2430;51.322;7.864;2023-07-13T02:34:08;8.40;;;2.80;;
4831;SDS011;2430;51.322;7.864;2023-07-13T02:36:34;15.20;;;4.07;;
4831;SDS011;2430;51.322;7.864;2023-07-13T02:39:01;4.67;;;2.80;;
4831;SDS011;2430;51.322;7.864;2023-07-13T02:41:28;7.80;;;3.03;;
4831;SDS011;2430;51.322;7.864;2023-07-13T02:43:55;3.70;;;2.80;;
4831;SDS011;2430;51.322;7.864;2023-07-13T02:46:28;9.10;;;2.97;;
4831;SDS011;2430;51.322;7.864;2023-07-13T02:48:55;4.73;;;2.40;;
4831;SDS011;2430;51.322;7.864;2023-07-13T02:51:22;3.07;;;2.30;;
4831;SDS011;2430;51.322;7.864;2023-07-13T02:53:49;3.80;;;2.60;;
4831;SDS011;2430;51.322;7.864;2023-07-13T02:56:15;8.00;;;2.90;;
4831;SDS011;2430;51.322;7.864;2023-07-13T02:58:43;5.47;;;2.83;;
4831;SDS011;2430;51.322;7.864;2023-07-13T03:01:10;8.80;;;2.67;;
4831;SDS011;2430;51.322;7.864;2023-07-13T03:03:37;6.00;;;3.10;;
4831;SDS011;2430;51.322;7.864;2023-07-13T03:06:05;10.30;;;2.90;;
4831;SDS011;2430;51.322;7.864;2023-07-13T03:08:33;6.17;;;3.30;;
4831;SDS011;2430;51.322;7.864;2023-07-13T03:11:00;3.50;;;2.70;;
4831;SDS011;2430;51.322;7.864;2023-07-13T03:13:27;4.90;;;2.90;;
4831;SDS011;2430;51.322;7.864;2023-07-13T03:15:53;4.50;;;2.40;;
4831;SDS011;2430;51.322;7.864;2023-07-13T03:18:20;5.90;;;2.23;;
4831;SDS011;2430;51.322;7.864;2023-07-13T03:20:49;6.77;;;2.40;;
4831;SDS011;2430;51.322;7.864;2023-07-13T03:23:18;6.80;;;2.43;;
4831;SDS011;2430;51.322;7.864;2023-07-13T03:25:44;5.30;;;2.20;;
4831;SDS011;2430;51.322;7.864;2023-07-13T03:28:11;6.63;;;2.83;;
4831;SDS011;2430;51.322;7.864;2023-07-13T03:30:38;5.97;;;2.73;;
4831;SDS011;2430;51.322;7.864;2023-07-13T03:33:04;9.87;;;3.10;;
4831;SDS011;2430;51.322;7.864;2023-07-13T03:35:31;5.73;;;3.17;;
4831;SDS011;2430;51.322;7.864;2023-07-13T03:37:58;13.63;;;3.00;;
4831;SDS011;2430;51.322;7.864;2023-07-13T03:40:27;5.70;;;3.20;;
4831;SDS011;2430;51.322;7.864;2023-07-13T03:42:53;5.80;;;3.13;;
4831;SDS011;2430;51.322;7.864;2023-07-13T03:45:20;6.97;;;2.80;;
4831;SDS011;2430;51.322;7.864;2023-07-13T03:47:47;6.63;;;2.73;;
4831;SDS011;2430;51.322;7.864;2023-07-13T03:50:13;10.63;;;2.60;;
4831;SDS011;2430;51.322;7.864;2023-07-13T03:52:40;3.47;;;2.47;;
4831;SDS011;2430;51.322;7.864;2023-07-13T03:55:06;3.30;;;2.20;;
4831;SDS011;2430;51.322;7.864;2023-07-13T03:57:34;4.63;;;2.27;;
4831;SDS011;2430;51.322;7.864;2023-07-13T04:00:01;5.30;;;2.40;;
4831;SDS011;2430;51.322;7.864;2023-07-13T04:02:28;5.90;;;2.27;;
4831;SDS011;2430;51.322;7.864;2023-07-13T04:04:54;5.63;;;2.30;;
4831;SDS011;2430;51.322;7.864;2023-07-13T04:07:21;6.50;;;2.37;;
4831;SDS011;2430;51.322;7.864;2023-07-13T04:09:47;4.70;;;2.20;;
4831;SDS011;2430;51.322;7.864;2023-07-13T04:12:14;5.77;;;3.20;;
4831;SDS011;2430;51.322;7.864;2023-07-13T04:14:42;5.20;;;3.30;;
4831;SDS011;2430;51.322;7.864;2023-07-13T04:17:08;5.20;;;2.83;;
4831;SDS011;2430;51.322;7.864;2023-07-13T04:19:35;4.13;;;2.63;;
4831;SDS011;2430;51.322;7.864;2023-07-13T04:22:01;3.43;;;2.33;;
4831;SDS011;2430;51.322;7.864;2023-07-13T04:24:28;4.30;;;2.40;;
4831;SDS011;2430;51.322;7.864;2023-07-13T04:26:55;4.97;;;2.23;;
4831;SDS011;2430;51.322;7.864;2023-07-13T04:29:24;6.60;;;2.00;;
4831;SDS011;2430;51.322;7.864;2023-07-13T04:31:52;6.33;;;1.93;;
4831;SDS011;2430;51.322;7.864;2023-07-13T04:34:19;5.23;;;1.97;;
4831;SDS011;2430;51.322;7.864;2023-07-13T04:36:46;3.23;;;1.97;;
4831;SDS011;2430;51.322;7.864;2023-07-13T04:39:12;5.67;;;2.03;;
4831;SDS011;2430;51.322;7.864;2023-07-13T04:41:39;7.53;;;2.20;;
4831;SDS011;2430;51.322;7.864;2023-07-13T04:44:05;3.70;;;1.63;;
4831;SDS011;2430;51.322;7.864;2023-07-13T04:46:32;1.93;;;1.50;;
4831;SDS011;2430;51.322;7.864;2023-07-13T04:49:00;2.03;;;1.63;;
4831;SDS011;2430;51.322;7.864;2023-07-13T04:51:29;8.13;;;2.30;;
4831;SDS011;2430;51.322;7.864;2023-07-13T04:53:55;4.60;;;1.87;;
4831;SDS011;2430;51.322;7.864;2023-07-13T04:56:23;6.23;;;2.00;;
4831;SDS011;2430;51.322;7.864;2023-07-13T04:58:50;4.23;;;1.67;;
4831;SDS011;2430;51.322;7.864;2023-07-13T05:01:16;6.13;;;1.67;;
4831;SDS011;2430;51.322;7.864;2023-07-13T05:03:43;4.07;;;1.70;;
4831;SDS011;2430;51.322;7.864;2023-07-13T05:06:11;4.70;;;2.20;;
4831;SDS011;2430;51.322;7.864;2023-07-13T05:08:39;6.17;;;1.83;;
4831;SDS011;2430;51.322;7.864;2023-07-13T05:11:05;8.20;;;2.30;;
4831;SDS011;2430;51.322;7.864;2023-07-13T05:13:32;6.03;;;1.93;;
4831;SDS011;2430;51.322;7.864;2023-07-13T05:15:59;4.83;;;1.80;;
4831;SDS011;2430;51.322;7.864;2023-07-13T05:18:25;2.80;;;1.80;;
4831;SDS011;2430;51.322;7.864;2023-07-13T05:20:58;4.37;;;2.17;;
4831;SDS011;2430;51.322;7.864;2023-07-13T05:23:26;6.23;;;1.70;;
4831;SDS011;2430;51.322;7.864;2023-07-13T05:25:52;3.90;;;2.20;;
4831;SDS011;2430;51.322;7.864;2023-07-13T05:28:19;2.00;;;1.30;;
4831;SDS011;2430;51.322;7.864;2023-07-13T05:30:46;4.70;;;1.90;;
4831;SDS011;2430;51.322;7.864;2023-07-13T05:33:13;7.87;;;1.90;;
4831;SDS011;2430;51.322;7.864;2023-07-13T05:35:39;3.97;;;1.90;;
4831;SDS011;2430;51.322;7.864;2023-07-13T05:38:05;5.60;;;2.50;;
4831;SDS011;2430;51.322;7.864;2023-07-13T05:40:33;5.57;;;2.90;;
4831;SDS011;2430;51.322;7.864;2023-07-13T05:43:00;5.87;;;2.37;;
4831;SDS011;2430;51.322;7.864;2023-07-13T05:45:26;1.70;;;1.60;;
4831;SDS011;2430;51.322;7.864;2023-07-13T05:47:52;4.50;;;1.80;;
4831;SDS011;2430;51.322;7.864;2023-07-13T05:50:19;3.80;;;1.80;;
4831;SDS011;2430;51.322;7.864;2023-07-13T05:52:46;7.13;;;1.97;;
4831;SDS011;2430;51.322;7.864;2023-07-13T05:55:12;2.90;;;1.77;;
4831;SDS011;2430;51.322;7.864;2023-07-13T05:57:40;7.07;;;2.00;;
4831;SDS011;2430;51.322;7.864;2023-07-13T06:00:07;4.27;;;1.87;;
4831;SDS011;2430;51.322;7.864;2023-07-13T06:02:33;7.40;;;2.67;;
4831;SDS011;2430;51.322;7.864;2023-07-13T06:04:59;4.77;;;1.93;;
4831;SDS011;2430;51.322;7.864;2023-07-13T06:07:26;10.50;;;3.40;;
4831;SDS011;2430;51.322;7.864;2023-07-13T06:09:52;3.50;;;1.60;;
4831;SDS011;2430;51.322;7.864;2023-07-13T06:12:18;6.30;;;2.30;;
4831;SDS011;2430;51.322;7.864;2023-07-13T06:14:46;7.77;;;2.40;;
4831;SDS011;2430;51.322;7.864;2023-07-13T06:17:12;5.57;;;2.87;;
4831;SDS011;2430;51.322;7.864;2023-07-13T06:19:39;6.30;;;2.33;;
4831;SDS011;2430;51.322;7.864;2023-07-13T06:22:05;4.13;;;1.70;;
4831;SDS011;2430;51.322;7.864;2023-07-13T06:24:31;7.10;;;2.63;;
4831;SDS011;2430;51.322;7.864;2023-07-13T06:26:58;8.93;;;2.20;;
4831;SDS011;2430;51.322;7.864;2023-07-13T06:29:24;4.57;;;1.97;;
4831;SDS011;2430;51.322;7.864;2023-07-13T06:31:55;4.60;;;2.17;;
4831;SDS011;2430;51.322;7.864;2023-07-13T06:34:21;5.57;;;1.93;;
4831;SDS011;2430;51.322;7.864;2023-07-13T06:36:47;6.27;;;2.00;;
4831;SDS011;2430;51.322;7.864;2023-07-13T06:39:14;6.97;;;2.30;;
4831;SDS011;2430;51.322;7.864;2023-07-13T06:41:40;3.03;;;1.83;;
4831;SDS011;2430;51.322;7.864;2023-07-13T06:44:06;5.10;;;2.17;;
4831;SDS011;2430;51.322;7.864;2023-07-13T06:46:33;6.27;;;2.13;;
4831;SDS011;2430;51.322;7.864;2023-07-13T06:49:01;9.27;;;2.80;;
4831;SDS011;2430;51.322;7.864;2023-07-13T06:51:27;8.80;;;2.10;;
4831;SDS011;2430;51.322;7.864;2023-07-13T06:53:53;5.83;;;2.30;;
4831;SDS011;2430;51.322;7.864;2023-07-13T06:56:21;5.90;;;2.27;;
4831;SDS011;2430;51.322;7.864;2023-07-13T06:58:47;4.80;;;1.60;;
4831;SDS011;2430;51.322;7.864;2023-07-13T07:01:13;6.10;;;2.17;;
4831;SDS011;2430;51.322;7.864;2023-07-13T07:03:40;6.27;;;2.50;;
4831;SDS011;2430;51.322;7.864;2023-07-13T07:06:11;6.63;;;2.57;;
4831;SDS011;2430;51.322;7.864;2023-07-13T07:08:38;6.80;;;2.30;;
4831;SDS011;2430;51.322;7.864;2023-07-13T07:11:05;2.87;;;1.80;;
4831;SDS011;2430;51.322;7.864;2023-07-13T07:13:31;4.47;;;2.27;;
4831;SDS011;2430;51.322;7.864;2023-07-13T07:15:58;7.37;;;2.20;;
4831;SDS011;2430;51.322;7.864;2023-07-13T07:18:25;7.77;;;2.37;;
4831;SDS011;2430;51.322;7.864;2023-07-13T07:20:51;6.13;;;2.07;;
4831;SDS011;2430;51.322;7.864;2023-07-13T07:23:19;4.30;;;2.30;;
4831;SDS011;2430;51.322;7.864;2023-07-13T07:25:45;7.13;;;2.37;;
4831;SDS011;2430;51.322;7.864;2023-07-13T07:28:12;5.73;;;2.27;;
4831;SDS011;2430;51.322;7.864;2023-07-13T07:30:41;10.70;;;2.40;;
4831;SDS011;2430;51.322;7.864;2023-07-13T07:33:07;6.10;;;2.50;;
4831;SDS011;2430;51.322;7.864;2023-07-13T07:35:33;5.37;;;2.67;;
4831;SDS011;2430;51.322;7.864;2023-07-13T07:38:00;6.37;;;2.70;;
4831;SDS011;2430;51.322;7.864;2023-07-13T07:40:27;7.23;;;2.57;;
4831;SDS011;2430;51.322;7.864;2023-07-13T07:42:53;4.53;;;2.30;;
4831;SDS011;2430;51.322;7.864;2023-07-13T07:45:20;5.70;;;3.07;;
4831;SDS011;2430;51.322;7.864;2023-07-13T07:47:46;10.10;;;3.60;;
4831;SDS011;2430;51.322;7.864;2023-07-13T07:50:13;8.60;;;3.50;;
4831;SDS011;2430;51.322;7.864;2023-07-13T07:52:39;5.70;;;2.90;;
4831;SDS011;2430;51.322;7.864;2023-07-13T07:55:06;8.00;;;3.50;;
4831;SDS011;2430;51.322;7.864;2023-07-13T07:57:34;6.80;;;3.37;;
4831;SDS011;2430;51.322;7.864;2023-07-13T08:00:00;4.30;;;2.77;;
4831;SDS011;2430;51.322;7.864;2023-07-13T08:02:27;8.33;;;3.17;;
4831;SDS011;2430;51.322;7.864;2023-07-13T08:04:53;9.87;;;2.97;;
4831;SDS011;2430;51.322;7.864;2023-07-13T08:07:19;4.30;;;2.73;;
4831;SDS011;2430;51.322;7.864;2023-07-13T08:09:46;5.50;;;3.00;;
4831;SDS011;2430;51.322;7.864;2023-07-13T08:12:12;7.70;;;2.80;;
4831;SDS011;2430;51.322;7.864;2023-07-13T08:14:40;8.50;;;2.97;;
4831;SDS011;2430;51.322;7.864;2023-07-13T08:17:06;5.33;;;2.60;;
4831;SDS011;2430;51.322;7.864;2023-07-13T08:19:32;10.23;;;2.60;;
4831;SDS011;2430;51.322;7.864;2023-07-13T08:21:59;5.43;;;2.43;;
4831;SDS011;2430;51.322;7.864;2023-07-13T08:24:25;7.13;;;2.67;;
4831;SDS011;2430;51.322;7.864;2023-07-13T08:26:51;9.53;;;2.80;;
4831;SDS011;2430;51.322;7.864;2023-07-13T08:29:18;5.43;;;2.50;;
4831;SDS011;2430;51.322;7.864;2023-07-13T08:31:45;4.10;;;2.30;;
4831;SDS011;2430;51.322;7.864;2023-07-13T08:34:12;6.20;;;2.80;;
4831;SDS011;2430;51.322;7.864;2023-07-13T08:36:39;7.20;;;2.50;;
4831;SDS011;2430;51.322;7.864;2023-07-13T08:39:06;4.87;;;2.40;;
4831;SDS011;2430;51.322;7.864;2023-07-13T08:41:32;4.60;;;2.33;;
4831;SDS011;2430;51.322;7.864;2023-07-13T08:43:59;7.87;;;2.97;;
4831;SDS011;2430;51.322;7.864;2023-07-13T08:46:28;4.60;;;2.30;;
4831;SDS011;2430;51.322;7.864;2023-07-13T08:49:00;9.80;;;3.60;;
4831;SDS011;2430;51.322;7.864;2023-07-13T08:51:30;4.07;;;2.07;;
4831;SDS011;2430;51.322;7.864;2023-07-13T08:53:59;5.57;;;2.20;;
4831;SDS011;2430;51.322;7.864;2023-07-13T08:56:27;7.50;;;2.37;;
4831;SDS011;2430;51.322;7.864;2023-07-13T08:58:55;3.10;;;2.27;;
4831;SDS011;2430;51.322;7.864;2023-07-13T09:01:22;6.67;;;1.83;;
4831;SDS011;2430;51.322;7.864;2023-07-13T09:03:51;3.90;;;2.47;;
4831;SDS011;2430;51.322;7.864;2023-07-13T09:06:26;2.30;;;1.90;;
4831;SDS011;2430;51.322;7.864;2023-07-13T09:08:55;3.50;;;2.10;;
4831;SDS011;2430;51.322;7.864;2023-07-13T09:11:28;3.67;;;2.10;;
4831;SDS011;2430;51.322;7.864;2023-07-13T09:14:00;3.83;;;2.10;;
4831;SDS011;2430;51.322;7.864;2023-07-13T09:16:30;2.23;;;2.07;;
4831;SDS011;2430;51.322;7.864;2023-07-13T09:18:58;5.20;;;2.50;;
4831;SDS011;2430;51.322;7.864;2023-07-13T09:21:27;4.07;;;2.30;;
4831;SDS011;2430;51.322;7.864;2023-07-13T09:23:56;6.80;;;2.77;;
4831;SDS011;2430;51.322;7.864;2023-07-13T09:26:25;4.47;;;2.40;;
4831;SDS011;2430;51.322;7.864;2023-07-13T09:28:55;5.87;;;2.57;;
4831;SDS011;2430;51.322;7.864;2023-07-13T09:31:23;2.90;;;1.70;;
4831;SDS011;2430;51.322;7.864;2023-07-13T09:33:50;4.70;;;1.80;;
4831;SDS011;2430;51.322;7.864;2023-07-13T09:36:18;2.93;;;1.97;;
4831;SDS011;2430;51.322;7.864;2023-07-13T09:38:46;4.90;;;1.87;;
4831;SDS011;2430;51.322;7.864;2023-07-13T09:41:16;4.43;;;2.40;;
4831;SDS011;2430;51.322;7.864;2023-07-13T09:44:01;4.67;;;2.30;;
4831;SDS011;2430;51.322;7.864;2023-07-13T09:46:27;2.80;;;1.80;;
4831;SDS011;2430;51.322;7.864;2023-07-13T09:48:53;9.87;;;2.70;;
4831;SDS011;2430;51.322;7.864;2023-07-13T09:51:21;7.13;;;2.30;;
4831;SDS011;2430;51.322;7.864;2023-07-13T09:53:49;3.33;;;2.30;;
4831;SDS011;2430;51.322;7.864;2023-07-13T09:56:19;10.93;;;2.83;;
4831;SDS011;2430;51.322;7.864;2023-07-13T09:58:45;3.57;;;2.27;;
4831;SDS011;2430;51.322;7.864;2023-07-13T10:01:11;3.10;;;2.23;;
4831;SDS011;2430;51.322;7.864;2023-07-13T10:03:39;4.80;;;2.43;;
4831;SDS011;2430;51.322;7.864;2023-07-13T10:06:11;7.43;;;3.33;;
4831;SDS011;2430;51.322;7.864;2023-07-13T10:08:37;4.00;;;2.20;;
4831;SDS011;2430;51.322;7.864;2023-07-13T10:11:09;5.03;;;3.30;;
4831;SDS011;2430;51.322;7.864;2023-07-13T10:13:37;3.10;;;2.40;;
4831;SDS011;2430;51.322;7.864;2023-07-13T10:16:04;3.50;;;2.57;;
4831;SDS011;2430;51.322;7.864;2023-07-13T10:18:33;4.17;;;2.70;;
4831;SDS011;2430;51.322;7.864;2023-07-13T10:21:11;6.17;;;3.40;;
4831;SDS011;2430;51.322;7.864;2023-07-13T10:23:38;8.70;;;3.63;;
4831;SDS011;2430;51.322;7.864;2023-07-13T10:26:11;6.90;;;4.30;;
4831;SDS011;2430;51.322;7.864;2023-07-13T10:28:39;3.00;;;2.33;;
4831;SDS011;2430;51.322;7.864;2023-07-13T10:31:08;4.80;;;2.10;;
4831;SDS011;2430;51.322;7.864;2023-07-13T10:33:37;5.43;;;3.10;;
4831;SDS011;2430;51.322;7.864;2023-07-13T10:36:05;3.33;;;2.13;;
4831;SDS011;2430;51.322;7.864;2023-07-13T10:38:37;3.00;;;2.23;;
4831;SDS011;2430;51.322;7.864;2023-07-13T10:41:05;5.00;;;2.13;;
4831;SDS011;2430;51.322;7.864;2023-07-13T10:43:34;4.20;;;2.27;;
4831;SDS011;2430;51.322;7.864;2023-07-13T10:46:03;5.37;;;2.50;;
4831;SDS011;2430;51.322;7.864;2023-07-13T10:48:30;3.10;;;1.97;;
4831;SDS011;2430;51.322;7.864;2023-07-13T10:50:57;4.37;;;2.27;;
4831;SDS011;2430;51.322;7.864;2023-07-13T10:53:28;9.00;;;2.33;;
4831;SDS011;2430;51.322;7.864;2023-07-13T10:55:55;2.60;;;2.40;;
4831;SDS011;2430;51.322;7.864;2023-07-13T10:58:22;3.47;;;2.20;;
4831;SDS011;2430;51.322;7.864;2023-07-13T11:00:52;6.30;;;2.57;;
4831;SDS011;2430;51.322;7.864;2023-07-13T11:03:20;4.10;;;1.80;;
4831;SDS011;2430;51.322;7.864;2023-07-13T11:05:48;3.40;;;1.80;;
4831;SDS011;2430;51.322;7.864;2023-07-13T11:08:18;6.03;;;1.60;;
4831;SDS011;2430;51.322;7.864;2023-07-13T11:10:47;4.27;;;2.00;;
4831;SDS011;2430;51.322;7.864;2023-07-13T11:15:57;2.20;;;1.93;;
4831;SDS011;2430;51.322;7.864;2023-07-13T11:18:23;5.60;;;1.73;;
4831;SDS011;2430;51.322;7.864;2023-07-13T11:20:51;3.73;;;1.93;;
4831;SDS011;2430;51.322;7.864;2023-07-13T11:23:19;4.47;;;1.80;;
4831;SDS011;2430;51.322;7.864;2023-07-13T11:25:45;10.87;;;2.30;;
4831;SDS011;2430;51.322;7.864;2023-07-13T11:28:14;7.43;;;2.03;;
4831;SDS011;2430;51.322;7.864;2023-07-13T11:30:43;4.87;;;1.60;;
4831;SDS011;2430;51.322;7.864;2023-07-13T11:33:13;5.00;;;2.10;;
4831;SDS011;2430;51.322;7.864;2023-07-13T11:35:51;6.40;;;1.43;;
4831;SDS011;2430;51.322;7.864;2023-07-13T11:38:18;5.40;;;1.77;;
4831;SDS011;2430;51.322;7.864;2023-07-13T11:40:46;3.73;;;2.10;;
4831;SDS011;2430;51.322;7.864;2023-07-13T11:43:13;4.93;;;1.60;;
4831;SDS011;2430;51.322;7.864;2023-07-13T11:45:40;5.60;;;1.33;;
4831;SDS011;2430;51.322;7.864;2023-07-13T11:48:18;2.47;;;1.23;;
4831;SDS011;2430;51.322;7.864;2023-07-13T11:50:49;3.40;;;1.20;;
4831;SDS011;2430;51.322;7.864;2023-07-13T11:53:16;3.60;;;1.83;;
4831;SDS011;2430;51.322;7.864;2023-07-13T11:55:42;1.90;;;1.40;;
4831;SDS011;2430;51.322;7.864;2023-07-13T11:58:09;3.63;;;1.50;;
4831;SDS011;2430;51.322;7.864;2023-07-13T12:00:36;2.70;;;1.17;;
4831;SDS011;2430;51.322;7.864;2023-07-13T12:03:05;8.63;;;1.50;;
4831;SDS011;2430;51.322;7.864;2023-07-13T12:05:33;2.47;;;1.40;;
4831;SDS011;2430;51.322;7.864;2023-07-13T12:07:59;3.67;;;1.53;;
4831;SDS011;2430;51.322;7.864;2023-07-13T12:10:34;5.40;;;2.00;;
4831;SDS011;2430;51.322;7.864;2023-07-13T12:13:01;5.00;;;1.43;;
4831;SDS011;2430;51.322;7.864;2023-07-13T12:15:28;3.47;;;1.30;;
4831;SDS011;2430;51.322;7.864;2023-07-13T12:17:55;5.10;;;1.50;;
4831;SDS011;2430;51.322;7.864;2023-07-13T12:20:23;4.00;;;1.50;;
4831;SDS011;2430;51.322;7.864;2023-07-13T12:22:52;3.33;;;1.30;;
4831;SDS011;2430;51.322;7.864;2023-07-13T12:25:21;3.67;;;1.30;;
4831;SDS011;2430;51.322;7.864;2023-07-13T12:27:48;3.30;;;1.90;;
4831;SDS011;2430;51.322;7.864;2023-07-13T12:30:24;7.60;;;1.50;;
4831;SDS011;2430;51.322;7.864;2023-07-13T12:33:01;2.67;;;1.20;;
4831;SDS011;2430;51.322;7.864;2023-07-13T12:35:28;2.33;;;1.60;;
4831;SDS011;2430;51.322;7.864;2023-07-13T12:37:59;4.17;;;1.50;;
4831;SDS011;2430;51.322;7.864;2023-07-13T12:40:27;2.43;;;1.40;;
4831;SDS011;2430;51.322;7.864;2023-07-13T12:42:54;2.47;;;1.40;;
4831;SDS011;2430;51.322;7.864;2023-07-13T12:45:22;2.70;;;1.77;;
4831;SDS011;2430;51.322;7.864;2023-07-13T12:47:50;7.50;;;1.43;;
4831;SDS011;2430;51.322;7.864;2023-07-13T12:50:19;4.30;;;1.43;;
4831;SDS011;2430;51.322;7.864;2023-07-13T12:52:50;2.37;;;1.40;;
4831;SDS011;2430;51.322;7.864;2023-07-13T12:55:19;2.40;;;1.40;;
4831;SDS011;2430;51.322;7.864;2023-07-13T12:57:49;8.83;;;1.60;;
4831;SDS011;2430;51.322;7.864;2023-07-13T13:00:20;2.73;;;1.40;;
4831;SDS011;2430;51.322;7.864;2023-07-13T13:02:48;2.63;;;1.90;;
4831;SDS011;2430;51.322;7.864;2023-07-13T13:05:15;3.93;;;1.60;;
4831;SDS011;2430;51.322;7.864;2023-07-13T13:07:42;1.70;;;1.13;;
4831;SDS011;2430;51.322;7.864;2023-07-13T13:10:14;9.80;;;1.60;;
4831;SDS011;2430;51.322;7.864;2023-07-13T13:12:41;2.90;;;1.43;;
4831;SDS011;2430;51.322;7.864;2023-07-13T13:15:08;3.20;;;1.60;;
4831;SDS011;2430;51.322;7.864;2023-07-13T13:17:35;3.83;;;1.43;;
4831;SDS011;2430;51.322;7.864;2023-07-13T13:20:04;2.70;;;1.43;;
4831;SDS011;2430;51.322;7.864;2023-07-13T13:22:31;4.67;;;1.80;;
4831;SDS011;2430;51.322;7.864;2023-07-13T13:24:57;3.17;;;1.53;;
4831;SDS011;2430;51.322;7.864;2023-07-13T13:27:24;3.53;;;1.63;;
4831;SDS011;2430;51.322;7.864;2023-07-13T13:29:52;2.90;;;1.63;;
4831;SDS011;2430;51.322;7.864;2023-07-13T13:32:19;5.30;;;1.50;;
4831;SDS011;2430;51.322;7.864;2023-07-13T13:34:45;3.83;;;1.67;;
4831;SDS011;2430;51.322;7.864;2023-07-13T13:37:18;3.30;;;1.57;;
4831;SDS011;2430;51.322;7.864;2023-07-13T13:39:45;3.00;;;1.50;;
4831;SDS011;2430;51.322;7.864;2023-07-13T13:42:12;2.23;;;1.70;;
4831;SDS011;2430;51.322;7.864;2023-07-13T13:44:38;1.60;;;1.30;;
4831;SDS011;2430;51.322;7.864;2023-07-13T13:47:09;5.63;;;1.83;;
4831;SDS011;2430;51.322;7.864;2023-07-13T13:49:39;5.90;;;1.47;;
4831;SDS011;2430;51.322;7.864;2023-07-13T13:52:07;2.23;;;1.53;;
4831;SDS011;2430;51.322;7.864;2023-07-13T13:54:35;2.40;;;1.43;;
4831;SDS011;2430;51.322;7.864;2023-07-13T13:57:01;3.73;;;1.40;;
4831;SDS011;2430;51.322;7.864;2023-07-13T13:59:28;3.30;;;1.50;;
4831;SDS011;2430;51.322;7.864;2023-07-13T14:01:54;6.33;;;2.00;;
4831;SDS011;2430;51.322;7.864;2023-07-13T14:04:22;3.30;;;1.70;;
4831;SDS011;2430;51.322;7.864;2023-07-13T14:06:48;2.70;;;1.43;;
4831;SDS011;2430;51.322;7.864;2023-07-13T14:09:15;5.13;;;1.50;;
4831;SDS011;2430;51.322;7.864;2023-07-13T14:11:42;5.73;;;1.60;;
4831;SDS011;2430;51.322;7.864;2023-07-13T14:14:09;4.20;;;1.93;;
4831;SDS011;2430;51.322;7.864;2023-07-13T14:16:38;2.97;;;1.50;;
4831;SDS011;2430;51.322;7.864;2023-07-13T14:19:04;3.47;;;1.53;;
4831;SDS011;2430;51.322;7.864;2023-07-13T14:21:32;2.83;;;1.40;;
4831;SDS011;2430;51.322;7.864;2023-07-13T14:23:58;3.20;;;1.90;;
4831;SDS011;2430;51.322;7.864;2023-07-13T14:26:25;5.43;;;1.80;;
4831;SDS011;2430;51.322;7.864;2023-07-13T14:28:52;5.10;;;1.80;;
4831;SDS011;2430;51.322;7.864;2023-07-13T14:31:20;5.43;;;1.97;;
4831;SDS011;2430;51.322;7.864;2023-07-13T14:33:47;3.93;;;1.83;;
4831;SDS011;2430;51.322;7.864;2023-07-13T14:36:17;4.27;;;2.00;;
4831;SDS011;2430;51.322;7.864;2023-07-13T14:38:48;3.00;;;1.70;;
4831;SDS011;2430;51.322;7.864;2023-07-13T14:41:15;4.50;;;1.43;;
4831;SDS011;2430;51.322;7.864;2023-07-13T14:43:41;7.83;;;2.33;;
4831;SDS011;2430;51.322;7.864;2023-07-13T14:46:07;9.73;;;1.70;;
4831;SDS011;2430;51.322;7.864;2023-07-13T14:48:38;2.47;;;1.80;;
4831;SDS011;2430;51.322;7.864;2023-07-13T14:51:04;6.63;;;1.90;;
4831;SDS011;2430;51.322;7.864;2023-07-13T14:53:33;3.43;;;1.60;;
4831;SDS011;2430;51.322;7.864;2023-07-13T14:56:02;3.77;;;1.60;;
4831;SDS011;2430;51.322;7.864;2023-07-13T14:58:28;3.30;;;2.10;;
4831;SDS011;2430;51.322;7.864;2023-07-13T15:00:54;4.23;;;1.90;;
4831;SDS011;2430;51.322;7.864;2023-07-13T15:03:23;5.17;;;2.23;;
4831;SDS011;2430;51.322;7.864;2023-07-13T15:05:51;3.50;;;2.30;;
4831;SDS011;2430;51.322;7.864;2023-07-13T15:08:18;7.30;;;2.80;;
4831;SDS011;2430;51.322;7.864;2023-07-13T15:10:44;6.30;;;2.10;;
4831;SDS011;2430;51.322;7.864;2023-07-13T15:13:16;3.33;;;2.07;;
4831;SDS011;2430;51.322;7.864;2023-07-13T15:15:43;3.03;;;1.80;;
4831;SDS011;2430;51.322;7.864;2023-07-13T15:18:11;2.80;;;1.90;;
4831;SDS011;2430;51.322;7.864;2023-07-13T15:20:38;3.27;;;2.30;;